Overview Statistics Trail Chart Weather Telemetry Raw packets
 

This is the latest recevied weather packets stored in our database for station/object Dunnningn. If no packets are shown the sender has not sent any weather packets the latest 10 day(s).

<< 2 3 4 5 6 7 8 >>
Time Temp. Humidity Pressure Rain* Wind** Luminosity Snow
1788465730 18.89° C 63% 1022.8 hPa 0 mm - - -
1788463931 19.44° C 61% 1022.6 hPa 0 mm - - -
1788462131 20° C 58% 1022.1 hPa 0 mm - - -
1788460330 21.11° C 54% 1022.1 hPa 0 mm - - -
1788458530 21.67° C 52% 1021.8 hPa 0 mm - - -
1788456731 22.22° C 51% 1021.7 hPa 0 mm - - -
1788454941 22.78° C 49% 1021.6 hPa 0 mm - - -
1788453130 22.78° C 49% 1021.7 hPa 0 mm - - -
1788451331 23.33° C 47% 1021.7 hPa 0 mm - - -
1788449530 23.33° C 47% 1022 hPa 0 mm - - -
1788447730 23.33° C 47% 1022.1 hPa 0 mm - - -
1788445930 23.89° C 45% 1022.2 hPa 0 mm - - -
1788444130 25.56° C 43% 1022 hPa 0 mm - - -
1788442331 25.56° C 43% 1022.4 hPa 0 mm - - -
1788440530 23.89° C 45% 1022.1 hPa 0 mm - - -
1788438735 23.89° C 45% 1022 hPa 0 mm - - -
1788436935 23.89° C 44% 1022.2 hPa 0 mm - - -
1788435130 24.44° C 42% 1022.7 hPa 0 mm - - -
1788433330 24.44° C 40% 1022.9 hPa 0 mm - - -
1788431530 24.44° C 43% 1022.9 hPa 0 mm - - -
1788429731 23.89° C 45% 1022.7 hPa 0 mm - - -
1788427930 22.78° C 48% 1022.8 hPa 0 mm - - -
1788426130 22.22° C 50% 1023.2 hPa 0 mm - - -
1788424330 20.56° C 52% 1022.9 hPa 0 mm - - -
1788422530 19.44° C 57% 1023.5 hPa 0 mm - - -

* Rain since midnight (hover to see other rain measurements)
** Current wind speed in m/s (hover to see current wind gust speed)